Terminal Aerodrome Forecast
Issued by NWS

Home | Current Version | Previous Version | Text Only | Print | Product List | Glossary On
Versions: 1 2 3 4 5 6 7 8 9 10 11 12 13 14 15
000
FTAK31 PAJN 010600 AAA
TAFASI
TAF AMD
PASI 010637Z 0107/0206 33005KT P6SM FEW050 SCT100
      TEMPO 0110/0114 6SM BR SCT003
     FM011800 27005KT P6SM FEW050 SCT100
     FM020400 31005KT P6SM SKC=

USA.gov is the U.S. government's official web portal to all federal, state and local government web resources and services.